createdAt,value
2019-05-19T00:00:03.108Z,15.33
2019-05-19T00:01:03.262Z,15.36
2019-05-19T00:02:03.429Z,15.31
2019-05-19T00:03:03.602Z,15.36
2019-05-19T00:04:03.770Z,15.36
2019-05-19T00:05:03.938Z,15.27
2019-05-19T00:06:04.112Z,15.24
2019-05-19T00:07:04.284Z,15.36
2019-05-19T00:08:04.466Z,15.25
2019-05-19T00:09:04.623Z,15.14
2019-05-19T00:10:04.821Z,15.09
2019-05-19T00:11:04.980Z,15.11
2019-05-19T00:12:05.152Z,15.06
2019-05-19T00:13:05.351Z,15.11
2019-05-19T00:14:05.493Z,15.11
2019-05-19T00:15:05.697Z,15.17
2019-05-19T00:16:05.829Z,15.11
2019-05-19T00:17:06.002Z,15.14
2019-05-19T00:18:06.171Z,15.15
2019-05-19T00:19:06.343Z,15.22
2019-05-19T00:20:06.517Z,15.15
2019-05-19T00:21:06.686Z,15.07
2019-05-19T00:22:06.849Z,15.10
2019-05-19T00:23:07.018Z,15.04
2019-05-19T00:24:07.187Z,15.02
2019-05-19T00:25:07.354Z,15.00
2019-05-19T00:26:07.533Z,15.00
2019-05-19T00:27:07.694Z,14.94
2019-05-19T00:28:07.861Z,14.96
2019-05-19T00:29:08.026Z,14.99
2019-05-19T00:30:08.193Z,14.97
2019-05-19T00:31:08.371Z,15.04
2019-05-19T00:32:08.533Z,14.99
2019-05-19T00:33:08.706Z,14.96
2019-05-19T00:34:08.870Z,14.96
2019-05-19T00:35:09.041Z,14.88
2019-05-19T00:36:09.209Z,15.03
2019-05-19T00:37:09.380Z,15.02
2019-05-19T00:38:09.559Z,14.96
2019-05-19T00:39:09.723Z,14.82
2019-05-19T00:40:09.896Z,14.86
2019-05-19T00:41:10.064Z,14.81
2019-05-19T00:42:10.230Z,14.94
2019-05-19T00:43:10.399Z,14.91
2019-05-19T00:44:10.571Z,14.85
2019-05-19T00:45:10.779Z,14.72
2019-05-19T00:46:10.950Z,14.73
2019-05-19T00:47:11.128Z,14.73
2019-05-19T00:48:11.297Z,14.73
2019-05-19T00:49:11.467Z,14.66
2019-05-19T00:50:12.315Z,14.78
2019-05-19T00:51:11.861Z,14.65
2019-05-19T00:52:12.025Z,14.68
2019-05-19T00:53:12.193Z,14.58
2019-05-19T00:54:12.358Z,14.59
2019-05-19T00:55:12.527Z,14.43
2019-05-19T00:56:12.693Z,14.58
2019-05-19T00:57:12.859Z,14.58
2019-05-19T00:58:13.036Z,14.62
2019-05-19T00:59:13.198Z,14.60
2019-05-19T01:00:13.371Z,14.60
2019-05-19T01:01:13.538Z,14.51
2019-05-19T01:02:13.709Z,14.59
2019-05-19T01:03:13.873Z,14.63
2019-05-19T01:04:14.045Z,14.43
2019-05-19T01:05:14.219Z,14.44
2019-05-19T01:06:14.383Z,14.50
2019-05-19T01:07:14.552Z,14.55
2019-05-19T01:08:14.717Z,14.53
2019-05-19T01:09:14.888Z,14.47
2019-05-19T01:10:15.051Z,14.55
2019-05-19T01:11:15.228Z,14.53
2019-05-19T01:12:15.393Z,14.55
2019-05-19T01:13:15.568Z,14.43
2019-05-19T01:14:15.744Z,14.44
2019-05-19T01:15:15.907Z,14.47
2019-05-19T01:16:16.088Z,14.41
2019-05-19T01:17:16.251Z,14.58
2019-05-19T01:18:16.428Z,14.47
2019-05-19T01:19:16.590Z,14.62
2019-05-19T01:20:16.759Z,14.48
2019-05-19T01:21:16.939Z,14.47
2019-05-19T01:22:17.115Z,14.45
2019-05-19T01:23:17.270Z,14.55
2019-05-19T01:24:17.445Z,14.44
2019-05-19T01:25:17.611Z,14.50
2019-05-19T01:26:17.777Z,14.47
2019-05-19T01:27:17.959Z,14.44
2019-05-19T01:28:18.126Z,14.48
2019-05-19T01:29:18.292Z,14.44
2019-05-19T01:30:18.464Z,14.45
2019-05-19T01:31:18.633Z,14.48
2019-05-19T01:32:18.800Z,14.45
2019-05-19T01:33:18.969Z,14.50
2019-05-19T01:34:19.140Z,14.44
2019-05-19T01:35:19.307Z,14.37
2019-05-19T01:36:19.483Z,14.45
2019-05-19T01:37:19.651Z,14.44
2019-05-19T01:38:19.817Z,14.43
2019-05-19T01:39:19.988Z,14.37
2019-05-19T01:40:20.147Z,14.37
2019-05-19T01:41:20.327Z,14.29
2019-05-19T01:42:20.490Z,14.41
2019-05-19T01:43:20.657Z,14.45
2019-05-19T01:44:20.826Z,14.20
2019-05-19T01:45:20.993Z,14.30
2019-05-19T01:46:21.168Z,14.20
2019-05-19T01:47:21.334Z,14.26
2019-05-19T01:48:21.504Z,14.36
2019-05-19T01:49:21.680Z,14.20
2019-05-19T01:50:21.849Z,14.25
2019-05-19T01:51:22.012Z,14.26
2019-05-19T01:52:22.185Z,14.36
2019-05-19T01:53:22.363Z,14.35
2019-05-19T01:54:22.525Z,14.18
2019-05-19T01:55:22.696Z,14.23
2019-05-19T01:56:22.866Z,14.20
2019-05-19T01:57:23.034Z,14.32
2019-05-19T01:58:23.207Z,14.29
2019-05-19T01:59:23.378Z,14.22
2019-05-19T02:00:23.547Z,14.26
2019-05-19T02:01:23.722Z,14.17
2019-05-19T02:02:23.890Z,14.17
2019-05-19T02:03:24.059Z,14.26
2019-05-19T02:04:24.231Z,14.17
2019-05-19T02:05:24.401Z,14.10
2019-05-19T02:06:24.571Z,14.07
2019-05-19T02:07:24.764Z,14.08
2019-05-19T02:08:24.905Z,14.04
2019-05-19T02:09:25.098Z,14.03
2019-05-19T02:10:25.273Z,14.10
2019-05-19T02:11:25.446Z,14.11
2019-05-19T02:12:25.618Z,14.07
2019-05-19T02:13:25.788Z,14.14
2019-05-19T02:14:25.968Z,13.90
2019-05-19T02:15:26.130Z,13.95
2019-05-19T02:16:26.303Z,13.93
2019-05-19T02:17:26.480Z,13.97
2019-05-19T02:18:26.647Z,13.99
2019-05-19T02:19:26.821Z,13.90
2019-05-19T02:20:33.206Z,13.90
2019-05-19T02:21:27.143Z,13.92
2019-05-19T02:22:27.313Z,13.92
2019-05-19T02:23:27.481Z,13.85
2019-05-19T02:24:27.645Z,13.89
2019-05-19T02:25:27.819Z,13.87
2019-05-19T02:26:27.986Z,13.96
2019-05-19T02:27:28.150Z,13.79
2019-05-19T02:28:28.323Z,13.81
2019-05-19T02:29:28.493Z,13.70
2019-05-19T02:30:28.668Z,13.74
2019-05-19T02:31:28.837Z,13.77
2019-05-19T02:32:29.005Z,13.83
2019-05-19T02:33:29.172Z,13.72
2019-05-19T02:34:29.338Z,13.63
2019-05-19T02:35:29.511Z,13.62
2019-05-19T02:36:29.687Z,13.70
2019-05-19T02:37:29.851Z,13.85
2019-05-19T02:38:30.021Z,13.78
2019-05-19T02:39:30.191Z,13.70
2019-05-19T02:40:30.359Z,13.63
2019-05-19T02:41:30.530Z,13.63
2019-05-19T02:42:30.703Z,13.59
2019-05-19T02:43:30.871Z,13.60
2019-05-19T02:44:31.040Z,13.63
2019-05-19T02:45:31.204Z,13.57
2019-05-19T02:46:31.389Z,13.57
2019-05-19T02:47:31.557Z,13.52
2019-05-19T02:48:31.724Z,13.37
2019-05-19T02:49:31.888Z,13.39
2019-05-19T02:50:32.053Z,13.37
2019-05-19T02:51:32.244Z,13.35
2019-05-19T02:52:32.408Z,13.37
2019-05-19T02:53:32.604Z,13.35
2019-05-19T02:54:32.750Z,13.30
2019-05-19T02:55:32.924Z,13.35
2019-05-19T02:56:33.101Z,13.35
2019-05-19T02:57:33.265Z,13.33
2019-05-19T02:58:33.434Z,13.39
2019-05-19T02:59:33.607Z,13.33
2019-05-19T03:00:33.778Z,13.31
2019-05-19T03:01:33.953Z,13.46
2019-05-19T03:02:34.130Z,13.53
2019-05-19T03:03:34.286Z,13.42
2019-05-19T03:04:34.461Z,13.53
2019-05-19T03:05:34.622Z,13.54
2019-05-19T03:06:34.801Z,13.50
2019-05-19T03:07:34.966Z,13.47
2019-05-19T03:08:35.135Z,13.42
2019-05-19T03:09:35.304Z,13.41
2019-05-19T03:10:35.477Z,13.35
2019-05-19T03:11:35.643Z,13.41
2019-05-19T03:12:35.819Z,13.44
2019-05-19T03:13:35.983Z,13.47
2019-05-19T03:14:36.154Z,13.39
2019-05-19T03:15:36.321Z,13.46
2019-05-19T03:16:36.499Z,13.50
2019-05-19T03:17:36.661Z,13.39
2019-05-19T03:18:36.826Z,13.53
2019-05-19T03:19:36.998Z,13.41
2019-05-19T03:20:37.169Z,13.39
2019-05-19T03:21:37.346Z,13.46
2019-05-19T03:22:37.515Z,13.56
2019-05-19T03:23:37.685Z,13.60
2019-05-19T03:24:37.853Z,13.50
2019-05-19T03:25:38.016Z,13.50
2019-05-19T03:26:38.182Z,13.57
2019-05-19T03:27:38.355Z,13.52
2019-05-19T03:28:38.524Z,13.50
2019-05-19T03:29:38.689Z,13.56
2019-05-19T03:30:38.877Z,13.35
2019-05-19T03:31:41.553Z,13.35
2019-05-19T03:32:43.618Z,13.37
2019-05-19T03:33:39.417Z,13.33
2019-05-19T03:34:39.578Z,13.50
2019-05-19T03:35:42.130Z,13.46
2019-05-19T03:36:44.303Z,13.50
2019-05-19T03:37:43.527Z,13.53
2019-05-19T03:38:41.424Z,13.60
2019-05-19T03:39:40.382Z,13.62
2019-05-19T03:40:40.546Z,13.62
2019-05-19T03:41:45.246Z,13.70
2019-05-19T03:42:42.750Z,13.67
2019-05-19T03:43:45.471Z,13.68
2019-05-19T03:44:45.030Z,13.67
2019-05-19T03:45:44.333Z,13.75
2019-05-19T03:46:41.597Z,13.70
2019-05-19T03:47:41.741Z,13.72
2019-05-19T03:48:44.963Z,13.68
2019-05-19T03:49:44.990Z,13.68
2019-05-19T03:50:44.096Z,13.68
2019-05-19T03:51:42.346Z,13.83
2019-05-19T03:52:42.933Z,13.89
2019-05-19T03:53:42.736Z,13.78
2019-05-19T03:54:47.557Z,13.72
2019-05-19T03:55:43.116Z,13.93
2019-05-19T03:56:44.992Z,13.83
2019-05-19T03:57:43.409Z,13.86
2019-05-19T03:58:43.589Z,13.77
2019-05-19T03:59:43.759Z,13.85
2019-05-19T04:00:43.923Z,13.89
2019-05-19T04:01:44.089Z,13.97
2019-05-19T04:02:44.258Z,13.92
2019-05-19T04:03:44.433Z,13.78
2019-05-19T04:04:44.613Z,13.79
2019-05-19T04:05:44.851Z,13.85
2019-05-19T04:06:44.947Z,13.79
2019-05-19T04:07:45.124Z,13.79
2019-05-19T04:08:45.294Z,13.63
2019-05-19T04:09:45.459Z,13.68
2019-05-19T04:10:45.633Z,13.63
2019-05-19T04:11:45.798Z,13.72
2019-05-19T04:12:45.978Z,13.68
2019-05-19T04:13:46.168Z,13.68
2019-05-19T04:14:46.349Z,13.75
2019-05-19T04:15:46.506Z,13.85
2019-05-19T04:16:46.720Z,13.86
2019-05-19T04:17:46.890Z,13.85
2019-05-19T04:18:47.109Z,13.83
2019-05-19T04:19:47.218Z,13.72
2019-05-19T04:20:47.400Z,13.77
2019-05-19T04:21:49.535Z,13.85
2019-05-19T04:22:47.740Z,13.92
2019-05-19T04:23:47.913Z,13.93
2019-05-19T04:24:48.180Z,13.92
2019-05-19T04:25:48.246Z,13.92
2019-05-19T04:26:48.421Z,13.89
2019-05-19T04:27:48.591Z,13.92
2019-05-19T04:28:48.750Z,13.92
2019-05-19T04:29:48.940Z,13.95
2019-05-19T04:30:49.102Z,13.81
2019-05-19T04:31:49.273Z,13.85
2019-05-19T04:32:49.445Z,13.68
2019-05-19T04:33:49.618Z,13.74
2019-05-19T04:34:49.788Z,13.79
2019-05-19T04:35:49.962Z,13.77
2019-05-19T04:36:50.126Z,13.67
2019-05-19T04:37:50.296Z,13.83
2019-05-19T04:38:50.469Z,13.85
2019-05-19T04:39:50.638Z,13.86
2019-05-19T04:40:50.817Z,13.86
2019-05-19T04:41:50.990Z,13.78
2019-05-19T04:42:51.155Z,13.81
2019-05-19T04:43:51.327Z,13.79
2019-05-19T04:44:51.505Z,13.83
2019-05-19T04:45:51.675Z,13.87
2019-05-19T04:46:51.846Z,13.87
2019-05-19T04:47:52.013Z,13.93
2019-05-19T04:48:52.165Z,14.00
2019-05-19T04:49:52.348Z,13.96
2019-05-19T04:50:52.515Z,13.97
2019-05-19T04:52:05.992Z,13.95
2019-05-19T04:52:52.860Z,14.11
2019-05-19T04:53:53.030Z,14.08
2019-05-19T04:54:53.200Z,14.07
2019-05-19T04:55:53.378Z,14.28
2019-05-19T04:56:53.552Z,14.20
2019-05-19T04:57:53.712Z,14.05
2019-05-19T04:58:53.892Z,14.14
2019-05-19T04:59:54.051Z,14.25
2019-05-19T05:00:54.217Z,14.30
2019-05-19T05:01:54.383Z,14.28
2019-05-19T05:02:54.560Z,14.29
2019-05-19T05:03:54.719Z,14.37
2019-05-19T05:04:54.899Z,14.43
2019-05-19T05:05:55.059Z,14.44
2019-05-19T05:06:55.233Z,14.45
2019-05-19T05:07:55.402Z,14.47
2019-05-19T05:08:55.573Z,14.47
2019-05-19T05:09:55.744Z,14.53
2019-05-19T05:10:55.925Z,14.53
2019-05-19T05:11:56.084Z,14.59
2019-05-19T05:12:56.254Z,14.58
2019-05-19T05:13:56.422Z,14.53
2019-05-19T05:14:56.594Z,14.51
2019-05-19T05:15:56.757Z,14.54
2019-05-19T05:16:56.927Z,14.62
2019-05-19T05:17:57.097Z,14.66
2019-05-19T05:18:57.266Z,14.66
2019-05-19T05:19:57.439Z,14.77
2019-05-19T05:20:57.608Z,14.78
2019-05-19T05:21:57.768Z,14.72
2019-05-19T05:22:57.939Z,14.82
2019-05-19T05:23:58.102Z,14.91
2019-05-19T05:24:58.325Z,14.96
2019-05-19T05:25:58.450Z,14.92
2019-05-19T05:26:58.621Z,14.97
2019-05-19T05:27:58.793Z,14.99
2019-05-19T05:28:59.020Z,15.14
2019-05-19T05:29:59.130Z,15.24
2019-05-19T05:30:59.296Z,15.14
2019-05-19T05:31:59.454Z,15.14
2019-05-19T05:32:59.629Z,15.22
2019-05-19T05:33:59.806Z,15.36
2019-05-19T05:35:00.001Z,15.58
2019-05-19T05:36:00.159Z,15.65
2019-05-19T05:37:00.328Z,15.84
2019-05-19T05:38:00.491Z,15.88
2019-05-19T05:39:00.654Z,15.98
2019-05-19T05:40:00.823Z,16.05
2019-05-19T05:41:00.999Z,16.04
2019-05-19T05:42:01.212Z,16.13
2019-05-19T05:43:01.373Z,16.28
2019-05-19T05:44:01.546Z,16.20
2019-05-19T05:45:01.715Z,16.38
2019-05-19T05:46:01.895Z,16.65
2019-05-19T05:47:02.053Z,16.71
2019-05-19T05:48:02.331Z,16.86
2019-05-19T05:49:02.398Z,16.90
2019-05-19T05:50:02.594Z,16.68
2019-05-19T05:51:02.746Z,16.74
2019-05-19T05:52:02.923Z,16.81
2019-05-19T05:53:03.086Z,16.96
2019-05-19T05:54:03.259Z,17.02
2019-05-19T05:55:03.429Z,17.01
2019-05-19T05:56:03.593Z,17.06
2019-05-19T05:57:03.766Z,16.99
2019-05-19T05:58:03.936Z,17.02
2019-05-19T05:59:04.103Z,16.84
2019-05-19T06:00:04.275Z,16.87
2019-05-19T06:01:04.447Z,16.81
2019-05-19T06:02:04.610Z,16.81
2019-05-19T06:03:04.779Z,16.84
2019-05-19T06:04:04.952Z,16.97
2019-05-19T06:05:05.122Z,16.97
2019-05-19T06:06:05.301Z,17.11
2019-05-19T06:07:05.463Z,17.06
2019-05-19T06:08:05.637Z,17.26
2019-05-19T06:09:05.811Z,17.27
2019-05-19T06:10:06.345Z,17.45
2019-05-19T06:11:06.193Z,17.52
2019-05-19T06:12:06.364Z,17.63
2019-05-19T06:13:06.541Z,17.41
2019-05-19T06:14:06.710Z,17.59
2019-05-19T06:15:06.882Z,17.65
2019-05-19T06:16:07.087Z,17.82
2019-05-19T06:17:07.256Z,17.80
2019-05-19T06:18:07.430Z,17.83
2019-05-19T06:19:07.601Z,18.05
2019-05-19T06:20:08.175Z,18.10
2019-05-19T06:21:07.949Z,18.26
2019-05-19T06:22:08.122Z,18.28
2019-05-19T06:23:08.304Z,18.37
2019-05-19T06:24:08.479Z,18.41
2019-05-19T06:25:08.650Z,18.49
2019-05-19T06:26:08.827Z,18.68
2019-05-19T06:27:08.984Z,18.90
2019-05-19T06:28:09.158Z,19.07
2019-05-19T06:29:09.367Z,19.21
2019-05-19T06:30:09.551Z,19.33
2019-05-19T06:31:09.686Z,19.40
2019-05-19T06:32:09.854Z,19.67
2019-05-19T06:33:10.020Z,19.84
2019-05-19T06:34:10.188Z,19.95
2019-05-19T06:35:10.370Z,20.03
2019-05-19T06:36:10.536Z,20.09
2019-05-19T06:37:10.712Z,20.18
2019-05-19T06:38:10.879Z,20.11
2019-05-19T06:39:11.065Z,20.16
2019-05-19T06:40:11.236Z,20.25
2019-05-19T06:41:11.413Z,20.36
2019-05-19T06:42:11.579Z,20.43
2019-05-19T06:43:11.989Z,20.58
2019-05-19T06:44:11.862Z,20.62
2019-05-19T06:45:12.031Z,20.80
2019-05-19T06:46:12.193Z,20.69
2019-05-19T06:47:12.378Z,20.90
2019-05-19T06:48:12.585Z,20.90
2019-05-19T06:49:12.830Z,21.09
2019-05-19T06:50:12.857Z,21.18
2019-05-19T06:51:13.025Z,21.20
2019-05-19T06:52:13.196Z,21.50
2019-05-19T06:53:14.708Z,21.64
2019-05-19T06:54:13.712Z,21.80
2019-05-19T06:55:13.678Z,22.02
2019-05-19T06:56:13.838Z,22.08
2019-05-19T06:57:14.028Z,22.02
2019-05-19T06:58:14.202Z,21.76
2019-05-19T06:59:14.372Z,21.69
2019-05-19T07:00:14.548Z,21.54
2019-05-19T07:01:14.709Z,21.88
2019-05-19T07:02:14.885Z,22.07
2019-05-19T07:03:15.065Z,22.36
2019-05-19T07:04:15.535Z,22.44
2019-05-19T07:05:15.392Z,22.43
2019-05-19T07:06:15.570Z,22.63
2019-05-19T07:07:15.738Z,22.84
2019-05-19T07:08:16.220Z,22.83
2019-05-19T07:09:16.104Z,22.93
2019-05-19T07:10:16.262Z,22.98
2019-05-19T07:11:16.442Z,22.94
2019-05-19T07:12:16.601Z,23.02
2019-05-19T07:13:16.774Z,23.28
2019-05-19T07:14:17.084Z,23.34
2019-05-19T07:15:17.236Z,23.47
2019-05-19T07:16:17.308Z,23.61
2019-05-19T07:17:17.491Z,23.92
2019-05-19T07:18:17.715Z,24.02
2019-05-19T07:19:17.873Z,24.10
2019-05-19T07:20:18.034Z,24.23
2019-05-19T07:21:18.398Z,24.76
2019-05-19T07:22:18.362Z,25.22
2019-05-19T07:23:27.944Z,25.66
2019-05-19T07:24:18.714Z,25.84
2019-05-19T07:25:18.901Z,26.44
2019-05-19T07:26:19.248Z,27.00
2019-05-19T07:27:19.267Z,27.30
2019-05-19T07:28:19.451Z,27.67
2019-05-19T07:29:19.622Z,27.83
2019-05-19T07:30:19.796Z,28.02
2019-05-19T07:31:19.988Z,28.32
2019-05-19T07:32:20.814Z,28.35
2019-05-19T07:33:20.442Z,28.52
2019-05-19T07:34:20.632Z,28.96
2019-05-19T07:35:20.765Z,29.41
2019-05-19T07:36:20.969Z,29.38
2019-05-19T07:37:21.149Z,29.60
2019-05-19T07:38:21.337Z,29.59
2019-05-19T07:39:21.516Z,29.61
2019-05-19T07:40:21.698Z,29.86
2019-05-19T07:41:21.880Z,30.25
2019-05-19T07:42:22.068Z,30.44
2019-05-19T07:43:22.312Z,30.31
2019-05-19T07:44:22.442Z,30.61
2019-05-19T07:45:22.674Z,30.65
2019-05-19T07:46:22.838Z,30.77
2019-05-19T07:47:23.029Z,30.72
2019-05-19T07:48:23.208Z,30.69
2019-05-19T07:49:23.418Z,30.92
2019-05-19T07:50:23.588Z,31.00
2019-05-19T07:51:23.763Z,31.14
2019-05-19T07:52:23.943Z,31.22
2019-05-19T07:53:24.169Z,31.40
2019-05-19T07:54:24.361Z,31.40
2019-05-19T07:55:24.549Z,31.39
2019-05-19T07:56:24.735Z,31.05
2019-05-19T07:57:24.930Z,30.78
2019-05-19T07:58:25.105Z,30.80
2019-05-19T07:59:25.276Z,30.77
2019-05-19T08:00:25.469Z,30.81
2019-05-19T08:01:25.649Z,30.90
2019-05-19T08:02:25.837Z,31.22
2019-05-19T08:03:26.020Z,31.33
2019-05-19T08:04:26.202Z,31.22
2019-05-19T08:05:26.397Z,30.88
2019-05-19T08:06:26.573Z,31.09
2019-05-19T08:07:26.763Z,31.12
2019-05-19T08:08:26.954Z,31.39
2019-05-19T08:09:27.127Z,31.36
2019-05-19T08:10:27.451Z,31.25
2019-05-19T08:11:27.503Z,31.47
2019-05-19T08:12:27.688Z,31.55
2019-05-19T08:13:27.868Z,31.64
2019-05-19T08:14:28.054Z,31.65
2019-05-19T08:15:28.235Z,32.00
2019-05-19T08:16:28.418Z,32.11
2019-05-19T08:17:28.609Z,32.30
2019-05-19T08:18:28.809Z,32.59
2019-05-19T08:19:29.002Z,32.83
2019-05-19T08:20:29.191Z,32.93
2019-05-19T08:21:29.360Z,32.82
2019-05-19T08:22:29.546Z,32.90
2019-05-19T08:23:29.742Z,32.80
2019-05-19T08:24:29.918Z,32.71
2019-05-19T08:25:30.174Z,33.09
2019-05-19T08:26:30.282Z,33.19
2019-05-19T08:27:30.606Z,33.69
2019-05-19T08:28:30.634Z,34.11
2019-05-19T08:29:31.099Z,34.11
2019-05-19T08:30:31.499Z,34.32
2019-05-19T08:31:31.238Z,34.33
2019-05-19T08:32:31.652Z,34.40
2019-05-19T08:33:31.577Z,34.52
2019-05-19T08:34:31.826Z,34.55
2019-05-19T08:35:33.341Z,34.58
2019-05-19T08:36:32.235Z,34.61
2019-05-19T08:37:32.421Z,34.57
2019-05-19T08:38:32.454Z,34.96
2019-05-19T08:39:33.169Z,35.36
2019-05-19T08:40:32.675Z,35.63
2019-05-19T08:41:33.604Z,35.68
2019-05-19T08:42:33.884Z,35.90
2019-05-19T08:43:33.607Z,36.04
2019-05-19T08:44:33.868Z,35.92
2019-05-19T08:45:36.799Z,35.95
2019-05-19T08:46:35.585Z,36.16
2019-05-19T08:47:34.537Z,36.36
2019-05-19T08:48:35.554Z,36.76
2019-05-19T08:49:34.497Z,36.54
2019-05-19T08:50:34.506Z,36.25
2019-05-19T08:51:35.118Z,36.20
2019-05-19T08:52:36.487Z,36.39
2019-05-19T08:53:36.104Z,36.59
2019-05-19T08:54:35.930Z,36.81
2019-05-19T08:55:37.900Z,36.84
2019-05-19T08:56:36.581Z,36.96
2019-05-19T08:57:37.615Z,36.99
2019-05-19T08:58:36.117Z,37.07
2019-05-19T08:59:37.483Z,37.08
2019-05-19T09:00:38.558Z,36.91
2019-05-19T09:01:36.558Z,36.62
2019-05-19T09:02:37.378Z,36.67
2019-05-19T09:03:36.853Z,36.68
2019-05-19T09:04:37.052Z,36.98
2019-05-19T09:05:37.321Z,37.03
2019-05-19T09:06:38.172Z,37.11
2019-05-19T09:07:40.260Z,37.20
2019-05-19T09:08:38.316Z,37.51
2019-05-19T09:09:39.744Z,37.47
2019-05-19T09:10:39.255Z,37.56
2019-05-19T09:11:38.794Z,37.86
2019-05-19T09:12:38.485Z,37.97
2019-05-19T09:13:39.816Z,38.27
2019-05-19T09:14:38.904Z,38.54
2019-05-19T09:15:39.011Z,38.77
2019-05-19T09:16:39.633Z,38.76
2019-05-19T09:17:39.287Z,38.15
2019-05-19T09:18:39.492Z,37.93
2019-05-19T09:19:40.646Z,38.14
2019-05-19T09:20:39.877Z,38.31
2019-05-19T09:21:40.153Z,38.28
2019-05-19T09:22:42.109Z,38.31
2019-05-19T09:23:41.347Z,38.65
2019-05-19T09:24:40.899Z,38.46
2019-05-19T09:25:41.303Z,38.58
2019-05-19T09:26:42.508Z,38.69
2019-05-19T09:27:41.815Z,38.71
2019-05-19T09:28:41.394Z,38.87
2019-05-19T09:29:42.604Z,38.89
2019-05-19T09:30:42.536Z,38.92
2019-05-19T09:31:41.890Z,38.61
2019-05-19T09:32:42.195Z,38.36
2019-05-19T09:33:42.217Z,38.34
2019-05-19T09:34:43.770Z,38.60
2019-05-19T09:35:43.593Z,38.99
2019-05-19T09:36:44.577Z,39.21
2019-05-19T09:37:44.293Z,39.46
2019-05-19T09:38:43.665Z,39.80
2019-05-19T09:39:43.324Z,39.75
2019-05-19T09:40:43.512Z,39.77
2019-05-19T09:41:43.694Z,39.94
2019-05-19T09:42:43.890Z,39.93
2019-05-19T09:43:44.810Z,39.75
2019-05-19T09:44:45.414Z,39.93
2019-05-19T09:45:45.218Z,40.14
2019-05-19T09:46:44.809Z,39.63
2019-05-19T09:47:46.620Z,39.52
2019-05-19T09:48:44.949Z,39.75
2019-05-19T09:49:45.185Z,39.92
2019-05-19T09:50:45.362Z,38.19
2019-05-19T09:51:45.838Z,38.31
2019-05-19T09:52:46.614Z,36.86
2019-05-19T09:53:46.541Z,35.88
2019-05-19T09:54:46.697Z,35.10
2019-05-19T09:55:46.266Z,34.27
2019-05-19T09:56:46.465Z,33.67
2019-05-19T09:57:46.649Z,32.95
2019-05-19T09:58:46.846Z,32.58
2019-05-19T09:59:47.033Z,33.96
2019-05-19T10:00:47.210Z,34.89
2019-05-19T10:01:48.629Z,35.76
2019-05-19T10:02:47.583Z,36.58
2019-05-19T10:03:47.760Z,36.98
2019-05-19T10:04:48.928Z,35.53
2019-05-19T10:05:48.196Z,34.35
2019-05-19T10:06:48.407Z,33.34
2019-05-19T10:07:48.544Z,32.73
2019-05-19T10:08:48.742Z,32.08
2019-05-19T10:09:48.938Z,31.44
2019-05-19T10:10:49.120Z,31.24
2019-05-19T10:11:50.934Z,30.97
2019-05-19T10:12:49.797Z,30.61
2019-05-19T10:13:49.977Z,32.04
2019-05-19T10:14:50.753Z,33.08
2019-05-19T10:15:50.423Z,34.18
2019-05-19T10:16:50.563Z,35.07
2019-05-19T10:17:50.786Z,35.78
2019-05-19T10:18:50.695Z,36.54
2019-05-19T10:19:52.062Z,36.95
2019-05-19T10:20:52.134Z,37.15
2019-05-19T10:21:51.295Z,37.40
2019-05-19T10:22:52.222Z,37.87
2019-05-19T10:23:51.995Z,38.30
2019-05-19T10:25:10.466Z,38.67
2019-05-19T10:25:51.948Z,38.61
2019-05-19T10:26:52.254Z,39.15
2019-05-19T10:27:52.366Z,39.49
2019-05-19T10:28:52.541Z,39.92
2019-05-19T10:29:53.289Z,40.16
2019-05-19T10:30:52.686Z,40.18
2019-05-19T10:31:54.514Z,40.16
2019-05-19T10:32:52.995Z,39.96
2019-05-19T10:33:53.187Z,40.02
2019-05-19T10:34:53.456Z,40.28
2019-05-19T10:35:53.475Z,40.26
2019-05-19T10:36:53.683Z,40.20
2019-05-19T10:37:53.957Z,40.26
2019-05-19T10:38:54.557Z,40.44
2019-05-19T10:39:55.327Z,40.41
2019-05-19T10:40:54.307Z,40.50
2019-05-19T10:41:54.812Z,40.59
2019-05-19T10:42:54.786Z,40.61
2019-05-19T10:43:54.884Z,40.49
2019-05-19T10:44:55.103Z,40.50
2019-05-19T10:45:55.168Z,40.18
2019-05-19T10:46:55.226Z,40.34
2019-05-19T10:47:55.455Z,40.43
2019-05-19T10:48:55.573Z,40.66
2019-05-19T10:49:55.614Z,40.66
2019-05-19T10:50:55.950Z,40.53
2019-05-19T10:51:58.061Z,40.34
2019-05-19T10:52:57.296Z,40.30
2019-05-19T10:53:56.608Z,40.61
2019-05-19T10:54:56.685Z,40.09
2019-05-19T10:55:56.928Z,39.65
2019-05-19T10:56:57.195Z,39.89
2019-05-19T10:57:57.305Z,40.00
2019-05-19T10:58:57.731Z,39.96
2019-05-19T10:59:57.632Z,39.74
2019-05-19T11:00:59.662Z,39.60
2019-05-19T11:01:58.136Z,39.41
2019-05-19T11:02:58.380Z,38.30
2019-05-19T11:03:58.707Z,37.80
2019-05-19T11:04:58.762Z,37.39
2019-05-19T11:05:58.971Z,37.96
2019-05-19T11:06:59.313Z,38.49
2019-05-19T11:07:59.133Z,38.55
2019-05-19T11:08:59.580Z,38.60
2019-05-19T11:09:59.794Z,38.40
2019-05-19T11:11:00.074Z,38.36
2019-05-19T11:12:00.175Z,38.50
2019-05-19T11:13:00.335Z,38.54
2019-05-19T11:14:00.405Z,38.60
2019-05-19T11:15:00.608Z,38.60
2019-05-19T11:16:00.712Z,38.36
2019-05-19T11:17:00.823Z,37.82
2019-05-19T11:18:00.811Z,37.26
2019-05-19T11:19:00.996Z,36.62
2019-05-19T11:20:01.264Z,35.90
2019-05-19T11:21:01.587Z,35.42
2019-05-19T11:22:02.021Z,34.86
2019-05-19T11:23:03.475Z,34.50
2019-05-19T11:24:02.094Z,33.90
2019-05-19T11:25:03.089Z,33.50
2019-05-19T11:26:02.950Z,33.37
2019-05-19T11:27:02.672Z,32.97
2019-05-19T11:28:02.868Z,32.95
2019-05-19T11:29:02.950Z,33.05
2019-05-19T11:30:03.104Z,33.19
2019-05-19T11:31:03.386Z,33.57
2019-05-19T11:32:03.603Z,33.80
2019-05-19T11:33:03.827Z,33.76
2019-05-19T11:34:04.110Z,34.01
2019-05-19T11:35:03.973Z,34.14
2019-05-19T11:36:04.267Z,34.11
2019-05-19T11:37:07.218Z,34.16
2019-05-19T11:38:04.471Z,34.01
2019-05-19T11:39:04.708Z,33.95
2019-05-19T11:40:04.928Z,33.77
2019-05-19T11:41:04.991Z,33.59
2019-05-19T11:42:05.509Z,33.46
2019-05-19T11:43:05.309Z,33.42
2019-05-19T11:44:05.502Z,33.15
2019-05-19T11:45:05.729Z,33.28
2019-05-19T11:46:05.970Z,33.04
2019-05-19T11:47:05.992Z,32.83
2019-05-19T11:48:05.965Z,32.87
2019-05-19T11:49:06.547Z,32.85
2019-05-19T11:50:06.235Z,32.68
2019-05-19T11:51:07.685Z,32.64
2019-05-19T11:52:06.702Z,32.58
2019-05-19T11:53:06.765Z,32.46
2019-05-19T11:54:07.648Z,32.08
2019-05-19T11:55:08.287Z,32.04
2019-05-19T11:56:10.985Z,31.97
2019-05-19T11:57:07.375Z,31.90
2019-05-19T11:58:07.556Z,32.07
2019-05-19T11:59:07.730Z,32.03
2019-05-19T12:00:07.935Z,32.16
2019-05-19T12:01:08.142Z,32.26
2019-05-19T12:02:08.288Z,32.55
2019-05-19T12:03:08.463Z,32.55
2019-05-19T12:04:08.715Z,32.30
2019-05-19T12:05:09.336Z,32.22
2019-05-19T12:06:11.565Z,32.19
2019-05-19T12:07:09.213Z,32.14
2019-05-19T12:08:09.394Z,32.08
2019-05-19T12:09:09.580Z,32.04
2019-05-19T12:10:10.404Z,32.08
2019-05-19T12:11:09.906Z,32.03
2019-05-19T12:12:11.363Z,31.99
2019-05-19T12:13:10.302Z,31.97
2019-05-19T12:14:10.500Z,31.96
2019-05-19T12:15:10.651Z,32.11
2019-05-19T12:16:11.581Z,32.19
2019-05-19T12:17:11.708Z,32.15
2019-05-19T12:18:11.211Z,32.21
2019-05-19T12:19:11.364Z,32.34
2019-05-19T12:20:11.545Z,32.33
2019-05-19T12:21:11.745Z,32.46
2019-05-19T12:22:11.915Z,32.19
2019-05-19T12:23:12.095Z,32.30
2019-05-19T12:24:12.269Z,32.38
2019-05-19T12:25:12.462Z,32.29
2019-05-19T12:26:22.726Z,32.21
2019-05-19T12:27:12.990Z,32.09
2019-05-19T12:28:12.952Z,31.89
2019-05-19T12:29:13.362Z,31.73
2019-05-19T12:30:13.546Z,31.46
2019-05-19T12:31:13.983Z,31.42
2019-05-19T12:32:14.967Z,31.51
2019-05-19T12:33:15.198Z,31.40
2019-05-19T12:34:16.936Z,31.29
2019-05-19T12:35:14.953Z,31.22
2019-05-19T12:36:14.781Z,31.18
2019-05-19T12:37:14.622Z,31.28
2019-05-19T12:38:15.054Z,31.09
2019-05-19T12:39:15.334Z,31.22
2019-05-19T12:40:15.569Z,31.10
2019-05-19T12:41:15.905Z,30.99
2019-05-19T12:42:15.779Z,30.90
2019-05-19T12:43:15.770Z,30.80
2019-05-19T12:44:15.906Z,30.94
2019-05-19T12:45:17.368Z,30.96
2019-05-19T12:46:16.889Z,30.97
2019-05-19T12:47:16.567Z,30.97
2019-05-19T12:48:17.679Z,30.96
2019-05-19T12:49:16.731Z,30.90
2019-05-19T12:50:16.681Z,30.80
2019-05-19T12:51:17.684Z,30.57
2019-05-19T12:52:16.984Z,30.72
2019-05-19T12:53:18.751Z,30.53
2019-05-19T12:54:17.378Z,30.35